Time;durP1;ratioP1;P1;durP2;ratioP2;P2;SDS_P1;SDS_P2;PMS_P1;PMS_P2;Temp;Humidity;BMP_temperature;BMP_pressure;BME280_temperature;BME280_humidity;BME280_pressure;Samples;Min_cycle;Max_cycle;Signal;HPM_P1;HPM_P2
2022/04/27 00:00:38;;;;;;;13.13;11.60;;;9.70;86.20;;;;;;4980482;28;20578;-44
2022/04/27 00:03:05;;;;;;;12.43;10.40;;;9.70;86.20;;;;;;4979987;28;20643;-44
2022/04/27 00:05:33;;;;;;;12.47;10.23;;;9.70;86.20;;;;;;4978410;28;20578;-44
2022/04/27 00:08:00;;;;;;;13.13;10.83;;;9.70;86.40;;;;;;4979025;28;20483;-44
2022/04/27 00:10:27;;;;;;;14.13;11.17;;;9.70;86.50;;;;;;4982477;28;20461;-44
2022/04/27 00:12:54;;;;;;;13.30;10.33;;;9.70;86.40;;;;;;4981283;28;20578;-44
2022/04/27 00:15:23;;;;;;;16.27;10.57;;;9.80;86.20;;;;;;4969224;28;20465;-44
2022/04/27 00:17:50;;;;;;;14.50;10.90;;;9.70;86.20;;;;;;4980044;28;21581;-44
2022/04/27 00:20:17;;;;;;;14.27;12.00;;;9.70;86.30;;;;;;4980384;28;20473;-44
2022/04/27 00:22:43;;;;;;;12.90;11.00;;;9.70;86.20;;;;;;4979937;28;20475;-44
2022/04/27 00:25:10;;;;;;;14.43;11.53;;;9.70;86.30;;;;;;4978883;28;20461;-44
2022/04/27 00:27:37;;;;;;;15.17;11.10;;;9.70;86.20;;;;;;4976710;28;20479;-44
2022/04/27 00:30:04;;;;;;;14.50;11.20;;;9.60;86.30;;;;;;4978098;28;20559;-44
2022/04/27 00:32:31;;;;;;;14.37;11.30;;;9.60;86.30;;;;;;4977095;28;20581;-44
2022/04/27 00:34:57;;;;;;;14.23;11.43;;;9.60;86.20;;;;;;4980102;28;20452;-44
2022/04/27 00:37:24;;;;;;;13.70;11.80;;;9.60;86.10;;;;;;4978693;28;20471;-44
2022/04/27 00:39:51;;;;;;;13.90;10.70;;;9.60;86.10;;;;;;4980163;28;20986;-44
2022/04/27 00:42:21;;;;;;;14.50;11.43;;;9.50;86.00;;;;;;4983591;28;20465;-44
2022/04/27 00:44:48;;;;;;;16.27;11.00;;;9.50;86.00;;;;;;4982976;28;20571;-44
2022/04/27 00:47:17;;;;;;;16.60;11.53;;;9.50;86.00;;;;;;4983928;28;20547;-44
2022/04/27 00:49:49;;;;;;;16.13;12.13;;;9.50;86.10;;;;;;4982895;28;20464;-44
2022/04/27 00:52:17;;;;;;;13.57;10.07;;;9.40;86.10;;;;;;4965189;28;20482;-44
2022/04/27 00:54:51;;;;;;;13.10;11.30;;;9.40;86.10;;;;;;4982115;28;20508;-44
2022/04/27 00:57:19;;;;;;;16.53;11.70;;;9.40;86.20;;;;;;4981289;28;20470;-44
2022/04/27 00:59:46;;;;;;;13.10;11.07;;;9.40;86.20;;;;;;4982511;28;20902;-44
2022/04/27 01:02:14;;;;;;;15.33;12.33;;;9.40;86.00;;;;;;4982191;28;20489;-45
2022/04/27 01:04:41;;;;;;;18.50;13.33;;;9.40;86.10;;;;;;4981307;28;21019;-44
2022/04/27 01:07:08;;;;;;;14.27;11.90;;;9.40;86.10;;;;;;4984931;28;20550;-44
2022/04/27 01:09:35;;;;;;;14.00;10.83;;;9.40;86.10;;;;;;4982262;28;20468;-44
2022/04/27 01:12:02;;;;;;;17.30;12.17;;;9.30;86.20;;;;;;4971269;28;20465;-44
2022/04/27 01:14:39;;;;;;;16.20;11.50;;;9.30;86.20;;;;;;4967253;28;20483;-44
2022/04/27 01:17:06;;;;;;;17.40;12.93;;;9.30;86.20;;;;;;4970097;28;20475;-44
2022/04/27 01:19:33;;;;;;;15.77;12.77;;;9.20;86.20;;;;;;4981424;28;20476;-44
2022/04/27 01:22:01;;;;;;;16.43;12.50;;;9.20;86.30;;;;;;4982150;28;20452;-44
2022/04/27 01:24:30;;;;;;;15.53;11.60;;;9.20;86.30;;;;;;4983535;28;20475;-44
2022/04/27 01:26:57;;;;;;;16.00;11.57;;;9.10;86.20;;;;;;4981460;28;20557;-44
2022/04/27 01:29:25;;;;;;;15.60;12.50;;;9.10;86.20;;;;;;4984222;28;20471;-44
2022/04/27 01:32:00;;;;;;;21.07;13.70;;;9.10;86.10;;;;;;4983607;28;20504;-44
2022/04/27 01:34:27;;;;;;;17.40;12.37;;;9.10;86.10;;;;;;4986555;28;20524;-44
2022/04/27 01:36:54;;;;;;;18.73;12.00;;;9.00;86.20;;;;;;4976738;28;20512;-44
2022/04/27 01:39:23;;;;;;;17.13;12.70;;;9.00;86.20;;;;;;4991699;28;20466;-46
2022/04/27 01:41:50;;;;;;;20.43;13.00;;;9.00;86.30;;;;;;4993835;28;20503;-47
2022/04/27 01:44:18;;;;;;;15.93;11.70;;;9.00;86.10;;;;;;4994788;28;20510;-47
2022/04/27 01:46:44;;;;;;;18.03;13.30;;;9.00;86.00;;;;;;4982651;28;20467;-47
2022/04/27 01:49:11;;;;;;;19.70;14.30;;;8.90;86.10;;;;;;4991000;28;20475;-47
2022/04/27 01:54:23;;;;;;;18.70;13.40;;;8.90;86.00;;;;;;4994496;28;20496;-47
2022/04/27 01:56:52;;;;;;;17.53;13.17;;;8.90;86.00;;;;;;4997917;28;20451;-47
2022/04/27 01:59:18;;;;;;;19.10;14.37;;;8.80;85.90;;;;;;4992004;28;20580;-47
2022/04/27 02:01:45;;;;;;;16.20;13.30;;;8.80;85.90;;;;;;4997444;28;20550;-47
2022/04/27 02:04:13;;;;;;;17.60;13.20;;;8.70;85.80;;;;;;4998869;28;21170;-46
2022/04/27 02:06:40;;;;;;;17.33;12.20;;;8.70;85.60;;;;;;4996639;28;20563;-46
2022/04/27 02:09:07;;;;;;;19.97;14.53;;;8.70;85.60;;;;;;4993197;28;20463;-47
2022/04/27 02:11:34;;;;;;;16.80;13.03;;;8.70;85.70;;;;;;4995172;28;20495;-47
2022/04/27 02:14:01;;;;;;;23.40;15.37;;;8.60;85.80;;;;;;4979302;28;20499;-47
2022/04/27 02:16:29;;;;;;;18.20;14.10;;;8.60;85.80;;;;;;4992024;28;20465;-47
2022/04/27 02:18:56;;;;;;;19.17;13.83;;;8.60;85.60;;;;;;4980235;28;21030;-47
2022/04/27 02:21:23;;;;;;;20.50;12.77;;;8.60;85.60;;;;;;4995483;28;20535;-47
2022/04/27 02:23:50;;;;;;;21.00;14.20;;;8.50;85.60;;;;;;4996301;28;20942;-47
2022/04/27 02:26:17;;;;;;;18.67;13.97;;;8.50;85.70;;;;;;4993696;28;20577;-47
2022/04/27 02:28:44;;;;;;;20.60;14.13;;;8.50;85.70;;;;;;4994757;28;20470;-47
2022/04/27 02:31:11;;;;;;;21.00;14.70;;;8.40;85.80;;;;;;4991997;28;20487;-46
2022/04/27 02:33:38;;;;;;;19.80;14.93;;;8.40;85.80;;;;;;4998539;28;20487;-47
2022/04/27 02:36:07;;;;;;;17.47;13.50;;;8.40;85.90;;;;;;4998160;28;20460;-47
2022/04/27 02:38:36;;;;;;;19.67;14.63;;;8.40;85.80;;;;;;4968461;28;20458;-44
2022/04/27 02:41:03;;;;;;;21.10;14.77;;;8.40;85.90;;;;;;4981109;28;20452;-44
2022/04/27 02:43:31;;;;;;;19.40;14.47;;;8.40;86.00;;;;;;4982158;28;20852;-44
2022/04/27 02:45:59;;;;;;;21.13;14.73;;;8.40;86.00;;;;;;4981447;28;20791;-44
2022/04/27 02:48:26;;;;;;;20.33;15.20;;;8.40;86.00;;;;;;4978973;28;20473;-44
2022/04/27 02:53:38;;;;;;;20.27;14.30;;;8.30;85.80;;;;;;4977999;28;20492;-45
2022/04/27 02:56:05;;;;;;;21.80;15.70;;;8.30;85.90;;;;;;4977651;28;21044;-45
2022/04/27 02:58:32;;;;;;;18.27;14.50;;;8.30;85.90;;;;;;4980889;28;20457;-46
2022/04/27 03:00:58;;;;;;;22.77;14.87;;;8.30;85.90;;;;;;4980903;28;20841;-45
2022/04/27 03:03:25;;;;;;;21.27;15.83;;;8.30;85.90;;;;;;4982214;28;20475;-48
2022/04/27 03:05:52;;;;;;;22.30;16.00;;;8.20;85.80;;;;;;4980331;28;20461;-45
2022/04/27 03:08:19;;;;;;;25.90;17.20;;;8.20;85.90;;;;;;4978853;28;20873;-45
2022/04/27 03:10:47;;;;;;;22.00;14.43;;;8.30;85.80;;;;;;4980804;28;20468;-45
2022/04/27 03:13:14;;;;;;;21.27;15.50;;;8.20;85.80;;;;;;4978382;28;20847;-45
2022/04/27 03:15:40;;;;;;;28.27;17.10;;;8.20;85.80;;;;;;4982746;28;20820;-45
2022/04/27 03:18:22;;;;;;;21.30;14.80;;;8.20;85.80;;;;;;4980296;28;20472;-45
2022/04/27 03:20:50;;;;;;;18.00;13.30;;;8.20;85.80;;;;;;4979449;28;20859;-45
2022/04/27 03:23:17;;;;;;;19.10;13.70;;;8.10;85.70;;;;;;4979084;28;20948;-45
2022/04/27 03:25:44;;;;;;;20.53;14.20;;;8.10;85.60;;;;;;4959147;28;20467;-45
2022/04/27 03:28:12;;;;;;;18.60;13.37;;;8.10;85.60;;;;;;4979738;28;20458;-45
2022/04/27 03:30:39;;;;;;;18.13;13.80;;;8.10;85.60;;;;;;4962999;28;20509;-45
2022/04/27 03:33:06;;;;;;;19.13;14.43;;;8.00;85.40;;;;;;4979085;28;20555;-44
2022/04/27 03:35:32;;;;;;;19.33;13.07;;;8.00;85.30;;;;;;4981278;28;20459;-45
2022/04/27 03:37:59;;;;;;;19.93;12.80;;;8.00;85.40;;;;;;4983983;28;20490;-45
2022/04/27 03:40:26;;;;;;;21.57;14.93;;;8.00;85.30;;;;;;4981840;28;20468;-45
2022/04/27 03:42:53;;;;;;;20.53;14.00;;;8.00;85.20;;;;;;4969933;28;20468;-44
2022/04/27 03:45:20;;;;;;;16.10;12.83;;;7.90;85.10;;;;;;4958913;28;20926;-44
2022/04/27 03:47:47;;;;;;;20.27;14.40;;;7.90;85.10;;;;;;4968310;28;20459;-44
2022/04/27 03:50:15;;;;;;;20.07;14.10;;;7.90;85.00;;;;;;4978341;28;20475;-44
2022/04/27 03:52:42;;;;;;;19.17;13.10;;;7.90;85.00;;;;;;4974156;28;20468;-44
2022/04/27 03:55:10;;;;;;;20.83;13.10;;;7.80;84.90;;;;;;4982927;28;20495;-45
2022/04/27 03:57:40;;;;;;;20.63;14.97;;;7.80;84.90;;;;;;4980379;28;20459;-44
2022/04/27 04:00:08;;;;;;;28.97;20.23;;;7.80;85.00;;;;;;4976470;28;21052;-44
2022/04/27 04:02:37;;;;;;;49.70;32.30;;;7.70;84.90;;;;;;4979655;28;20467;-45
2022/04/27 04:05:05;;;;;;;35.27;23.73;;;7.80;85.20;;;;;;4977435;28;20493;-44
2022/04/27 04:07:33;;;;;;;28.53;18.37;;;7.70;85.20;;;;;;4982703;28;20839;-45
2022/04/27 04:10:00;;;;;;;19.80;14.83;;;7.80;85.00;;;;;;4980656;28;20464;-45
2022/04/27 04:12:27;;;;;;;24.60;16.73;;;7.70;85.10;;;;;;4980549;28;20470;-44
2022/04/27 04:14:54;;;;;;;26.07;18.13;;;7.70;85.30;;;;;;4980234;28;20492;-44
2022/04/27 04:17:20;;;;;;;23.60;16.60;;;7.70;85.50;;;;;;4976509;28;22028;-44
2022/04/27 04:19:47;;;;;;;26.07;17.57;;;7.80;85.70;;;;;;4978831;28;21116;-44
2022/04/27 04:22:14;;;;;;;31.60;17.73;;;7.80;85.70;;;;;;4976692;28;20976;-44
2022/04/27 04:28:29;;;;;;;27.63;18.40;;;7.70;85.70;;;;;;4964359;28;20466;-44
2022/04/27 04:30:16;;;;;;;23.70;17.93;;;7.70;85.90;;;;;;4979385;28;20617;-43
2022/04/27 04:32:42;;;;;;;24.20;16.50;;;7.70;85.90;;;;;;4978616;28;20484;-43
2022/04/27 04:35:09;;;;;;;24.57;17.13;;;7.70;85.90;;;;;;4977272;28;20979;-43
2022/04/27 04:37:36;;;;;;;23.47;17.10;;;7.60;86.00;;;;;;4978875;28;20470;-43
2022/04/27 04:40:04;;;;;;;26.23;17.53;;;7.60;86.00;;;;;;4975143;28;20466;-43
2022/04/27 04:42:33;;;;;;;21.07;15.30;;;7.60;86.10;;;;;;4979630;28;20456;-43
2022/04/27 04:45:00;;;;;;;25.77;17.00;;;7.60;86.10;;;;;;4979067;28;20452;-43
2022/04/27 04:47:27;;;;;;;21.57;15.07;;;7.60;86.10;;;;;;4962607;28;21201;-43
2022/04/27 04:49:54;;;;;;;20.70;16.57;;;7.60;86.10;;;;;;4978954;28;20463;-43
2022/04/27 04:52:20;;;;;;;21.90;15.13;;;7.60;86.10;;;;;;4975643;28;20476;-44
2022/04/27 04:54:47;;;;;;;23.17;15.60;;;7.60;86.10;;;;;;4976410;28;20503;-44
2022/04/27 04:57:14;;;;;;;20.53;15.83;;;7.70;86.10;;;;;;4976761;28;20461;-44
2022/04/27 04:59:41;;;;;;;23.43;15.90;;;7.70;86.10;;;;;;4981068;28;20468;-44
2022/04/27 05:02:07;;;;;;;22.43;15.67;;;7.70;86.30;;;;;;4977699;28;21288;-44
2022/04/27 05:04:34;;;;;;;23.77;16.27;;;7.70;86.30;;;;;;4976531;28;20468;-44
2022/04/27 05:07:02;;;;;;;23.80;17.10;;;7.70;86.30;;;;;;4975946;28;20465;-44
2022/04/27 05:09:28;;;;;;;22.00;15.50;;;7.70;86.50;;;;;;4976716;28;20502;-44
2022/04/27 05:11:55;;;;;;;20.90;15.90;;;7.70;86.60;;;;;;4978501;28;20464;-43
2022/04/27 05:14:22;;;;;;;21.23;16.50;;;7.70;86.80;;;;;;4977783;28;20495;-44
2022/04/27 05:16:48;;;;;;;24.07;16.87;;;7.80;86.80;;;;;;4977305;28;20995;-43
2022/04/27 05:19:15;;;;;;;23.17;16.10;;;7.80;86.80;;;;;;4979623;28;20468;-44
2022/04/27 05:21:42;;;;;;;24.63;15.90;;;7.80;86.90;;;;;;4980378;28;21002;-44
2022/04/27 05:24:11;;;;;;;23.20;16.17;;;7.80;87.00;;;;;;4963418;28;20845;-44
2022/04/27 05:26:38;;;;;;;27.60;17.37;;;7.90;87.10;;;;;;4976334;28;20910;-44
2022/04/27 05:31:57;;;;;;;22.27;15.53;;;8.00;87.10;;;;;;4983640;28;20493;-44
2022/04/27 05:34:33;;;;;;;26.40;16.90;;;8.00;86.80;;;;;;4982451;28;20569;-43
2022/04/27 05:37:01;;;;;;;24.63;16.57;;;8.00;87.00;;;;;;4979368;28;20467;-44
2022/04/27 05:39:27;;;;;;;25.93;17.17;;;8.10;87.20;;;;;;4981687;28;20476;-44
2022/04/27 05:41:54;;;;;;;26.73;18.53;;;8.10;87.50;;;;;;4982682;28;20943;-43
2022/04/27 05:44:22;;;;;;;28.63;16.90;;;8.10;87.70;;;;;;4979949;28;20487;-44
2022/04/27 05:46:50;;;;;;;22.53;16.33;;;8.20;87.90;;;;;;4981700;28;20823;-44
2022/04/27 05:49:17;;;;;;;26.27;18.17;;;8.30;87.90;;;;;;4966536;28;20466;-44
2022/04/27 05:51:44;;;;;;;23.90;16.80;;;8.30;87.90;;;;;;4983487;28;20460;-43
2022/04/27 05:54:13;;;;;;;23.83;17.90;;;8.40;88.00;;;;;;4979655;28;20503;-43
2022/04/27 05:56:41;;;;;;;23.57;17.30;;;8.40;88.10;;;;;;4981245;28;20444;-43
2022/04/27 05:59:11;;;;;;;29.50;18.40;;;8.50;88.10;;;;;;4977722;28;20463;-43
2022/04/27 06:01:38;;;;;;;25.67;16.93;;;8.60;88.00;;;;;;4980369;28;20977;-44
2022/04/27 06:04:05;;;;;;;26.73;17.73;;;8.60;88.00;;;;;;4981044;28;20464;-43
2022/04/27 06:06:33;;;;;;;32.30;19.40;;;8.70;88.10;;;;;;4966913;28;20500;-44
2022/04/27 06:08:59;;;;;;;28.93;19.80;;;8.80;88.10;;;;;;4981740;28;20464;-44
2022/04/27 06:11:26;;;;;;;30.33;19.23;;;8.90;88.10;;;;;;4981717;28;20464;-43
2022/04/27 06:13:53;;;;;;;29.67;20.67;;;9.00;88.00;;;;;;4977253;28;20468;-44
2022/04/27 06:16:22;;;;;;;30.90;20.77;;;9.10;88.30;;;;;;4978165;28;21000;-44
2022/04/27 06:18:49;;;;;;;27.30;20.30;;;9.20;88.10;;;;;;4962172;28;20977;-44
2022/04/27 06:21:17;;;;;;;31.67;19.53;;;9.30;88.10;;;;;;4981826;28;20460;-44
2022/04/27 06:23:44;;;;;;;33.07;22.00;;;9.40;88.00;;;;;;4964331;28;20533;-44
2022/04/27 06:26:11;;;;;;;25.67;19.93;;;9.50;88.00;;;;;;4967723;28;20464;-44
2022/04/27 06:28:38;;;;;;;33.50;22.83;;;9.60;87.50;;;;;;4981714;28;20467;-43
2022/04/27 06:31:05;;;;;;;29.90;21.67;;;9.70;87.30;;;;;;4977880;28;20474;-44
2022/04/27 06:33:31;;;;;;;32.20;22.27;;;9.80;87.20;;;;;;4978310;28;20481;-43
2022/04/27 06:36:01;;;;;;;29.07;21.10;;;9.90;87.40;;;;;;4978091;28;20539;-44
2022/04/27 06:38:28;;;;;;;28.67;21.03;;;10.00;87.30;;;;;;4980932;28;20468;-43
2022/04/27 06:41:14;;;;;;;24.60;18.90;;;10.10;87.10;;;;;;4982649;28;20475;-43
2022/04/27 06:43:41;;;;;;;30.30;20.43;;;10.20;86.90;;;;;;4979978;28;20766;-43
2022/04/27 06:46:08;;;;;;;29.90;20.03;;;10.30;86.80;;;;;;4974365;28;20471;-44
2022/04/27 06:48:35;;;;;;;32.10;20.57;;;10.50;86.40;;;;;;4961423;28;20958;-44
2022/04/27 06:51:01;;;;;;;27.50;20.10;;;10.60;85.90;;;;;;4978323;28;20958;-43
2022/04/27 06:53:28;;;;;;;28.50;20.20;;;10.70;85.70;;;;;;4979364;28;20474;-43
2022/04/27 06:56:02;;;;;;;28.97;19.93;;;10.80;85.20;;;;;;4980553;28;20522;-43
2022/04/27 06:58:29;;;;;;;27.70;20.73;;;10.90;84.50;;;;;;4982495;28;20559;-43
2022/04/27 07:00:57;;;;;;;27.87;20.60;;;11.00;84.20;;;;;;4978507;28;20475;-44
2022/04/27 07:03:24;;;;;;;31.73;21.67;;;11.20;83.50;;;;;;4980719;28;20467;-43
2022/04/27 07:05:51;;;;;;;29.30;18.33;;;11.30;83.20;;;;;;4982026;28;20904;-44
2022/04/27 07:08:18;;;;;;;29.60;20.90;;;11.40;83.00;;;;;;4979181;28;20524;-44
2022/04/27 07:10:45;;;;;;;28.47;20.10;;;11.60;82.20;;;;;;4979160;28;20967;-44
2022/04/27 07:13:11;;;;;;;29.60;20.43;;;11.70;82.20;;;;;;4962454;28;20454;-44
2022/04/27 07:15:38;;;;;;;27.40;20.30;;;11.80;82.20;;;;;;4960207;28;20492;-44
2022/04/27 07:18:05;;;;;;;29.50;20.30;;;11.90;81.70;;;;;;4977993;28;20862;-43
2022/04/27 07:20:32;;;;;;;26.00;20.03;;;12.10;80.80;;;;;;4977283;28;20801;-43
2022/04/27 07:22:59;;;;;;;25.83;19.03;;;12.30;79.40;;;;;;4981790;28;20455;-44
2022/04/27 07:25:26;;;;;;;27.10;20.80;;;12.40;79.10;;;;;;4977782;28;21005;-44
2022/04/27 07:27:53;;;;;;;25.83;19.10;;;12.50;79.30;;;;;;4977497;28;20449;-44
2022/04/27 07:30:21;;;;;;;25.47;19.70;;;12.60;79.10;;;;;;4976419;28;20828;-44
2022/04/27 07:32:48;;;;;;;27.40;18.87;;;12.70;79.30;;;;;;4977933;28;20453;-44
2022/04/27 07:35:18;;;;;;;24.37;18.33;;;12.90;77.20;;;;;;4980227;28;20591;-44
2022/04/27 07:37:45;;;;;;;24.57;19.53;;;13.00;75.90;;;;;;4982019;28;20475;-44
2022/04/27 07:40:12;;;;;;;27.03;20.77;;;13.20;77.20;;;;;;4980498;28;20520;-44
2022/04/27 07:42:40;;;;;;;26.40;18.03;;;13.30;75.10;;;;;;4979587;28;20446;-44
2022/04/27 07:45:08;;;;;;;22.47;19.00;;;13.40;74.90;;;;;;4980578;28;20502;-47
2022/04/27 07:47:43;;;;;;;22.43;16.40;;;13.60;74.10;;;;;;4964325;28;20467;-44
2022/04/27 07:50:12;;;;;;;22.10;16.77;;;13.80;73.40;;;;;;4980241;28;20474;-44
2022/04/27 07:52:39;;;;;;;19.80;16.67;;;13.90;71.50;;;;;;4967978;28;20467;-44
2022/04/27 07:55:07;;;;;;;21.83;17.03;;;14.10;70.90;;;;;;4979941;28;20503;-44
2022/04/27 07:57:34;;;;;;;22.87;17.30;;;14.20;70.50;;;;;;4976131;28;20939;-44
2022/04/27 08:00:05;;;;;;;20.10;16.40;;;14.40;71.10;;;;;;4964447;28;20464;-44
2022/04/27 08:02:32;;;;;;;22.40;17.70;;;14.60;70.90;;;;;;4978624;28;20822;-44
2022/04/27 08:05:00;;;;;;;21.47;16.87;;;14.80;71.10;;;;;;4970343;28;20981;-44
2022/04/27 08:07:40;;;;;;;19.67;16.97;;;15.00;70.50;;;;;;4976634;28;21027;-44
2022/04/27 08:10:12;;;;;;;19.20;15.40;;;15.20;69.40;;;;;;4978130;28;20906;-44
2022/04/27 08:12:41;;;;;;;22.10;16.27;;;15.40;69.70;;;;;;4974549;28;20860;-44
2022/04/27 08:15:08;;;;;;;21.37;15.57;;;15.50;69.30;;;;;;4979032;28;20504;-43
2022/04/27 08:17:35;;;;;;;19.60;16.10;;;15.60;69.10;;;;;;4979973;28;20468;-44
2022/04/27 08:22:48;;;;;;;18.60;14.90;;;15.80;68.40;;;;;;4979928;28;20930;-44
2022/04/27 08:25:15;;;;;;;18.50;15.60;;;15.90;67.90;;;;;;4959974;28;20473;-44
2022/04/27 08:27:42;;;;;;;19.03;15.70;;;15.90;68.30;;;;;;4973454;28;20480;-44
2022/04/27 08:30:09;;;;;;;18.63;15.80;;;15.80;68.80;;;;;;4967165;28;20465;-44
2022/04/27 08:32:36;;;;;;;17.87;15.13;;;15.90;68.70;;;;;;4979422;28;20489;-44
2022/04/27 08:35:02;;;;;;;15.93;14.13;;;16.10;68.10;;;;;;4980502;28;20485;-44
2022/04/27 08:37:29;;;;;;;19.07;15.87;;;16.20;68.00;;;;;;4973567;28;20718;-44
2022/04/27 08:39:56;;;;;;;17.77;13.93;;;16.40;68.00;;;;;;4978122;28;20834;-44
2022/04/27 08:42:22;;;;;;;18.63;15.87;;;16.50;66.90;;;;;;4978170;28;20465;-44
2022/04/27 08:44:49;;;;;;;16.43;14.40;;;16.70;67.20;;;;;;4968023;28;20477;-44
2022/04/27 08:47:16;;;;;;;16.17;14.30;;;16.90;66.10;;;;;;4977422;28;20478;-44
2022/04/27 08:49:43;;;;;;;18.47;14.47;;;17.10;64.50;;;;;;4976561;28;20473;-44
2022/04/27 08:52:12;;;;;;;18.40;15.67;;;17.20;64.20;;;;;;4958528;28;20475;-44
2022/04/27 08:54:39;;;;;;;16.90;14.20;;;17.30;62.40;;;;;;4975717;28;20504;-44
2022/04/27 08:57:07;;;;;;;17.23;15.50;;;17.40;62.10;;;;;;4977972;28;20452;-44
2022/04/27 08:59:33;;;;;;;21.17;15.90;;;17.50;62.10;;;;;;4977925;28;20875;-44
2022/04/27 09:02:24;;;;;;;19.37;15.10;;;17.70;62.30;;;;;;4978382;28;20472;-44
2022/04/27 09:05:15;;;;;;;17.90;15.70;;;17.70;62.10;;;;;;4986978;28;20917;-44
2022/04/27 09:07:50;;;;;;;17.47;15.47;;;17.50;63.30;;;;;;4977372;28;20478;-44
2022/04/27 09:10:23;;;;;;;17.97;14.93;;;17.70;63.30;;;;;;4967406;28;20523;-44
2022/04/27 09:12:53;;;;;;;17.30;14.83;;;17.90;63.10;;;;;;4980847;28;20469;-44
2022/04/27 09:15:22;;;;;;;18.57;13.80;;;18.10;61.70;;;;;;4981112;28;20994;-44
2022/04/27 09:20:46;;;;;;;16.17;14.47;;;18.70;60.70;;;;;;4985855;28;20464;-44
2022/04/27 09:23:21;;;;;;;17.67;15.77;;;19.10;58.70;;;;;;4977240;28;21098;-44
2022/04/27 09:25:51;;;;;;;18.93;13.40;;;19.40;57.70;;;;;;4979713;28;20465;-45
2022/04/27 09:28:33;;;;;;;14.47;12.90;;;19.70;57.10;;;;;;4979877;28;20586;-44
2022/04/27 09:31:00;;;;;;;17.10;13.93;;;20.00;56.20;;;;;;4981582;28;21270;-44
2022/04/27 09:33:36;;;;;;;13.77;11.93;;;20.40;55.40;;;;;;4983426;28;20557;-45
2022/04/27 09:36:23;;;;;;;16.50;14.90;;;20.70;53.90;;;;;;4981190;28;20599;-45
2022/04/27 09:38:50;;;;;;;12.70;11.40;;;20.90;54.40;;;;;;4980587;28;20453;-45
2022/04/27 09:41:42;;;;;;;14.23;12.70;;;21.20;52.80;;;;;;4972666;28;20457;-44
2022/04/27 09:44:29;;;;;;;15.97;14.27;;;21.40;51.30;;;;;;4978604;28;20469;-44
2022/04/27 09:46:57;;;;;;;13.70;12.30;;;21.60;51.30;;;;;;4982350;28;21076;-44
2022/04/27 09:49:25;;;;;;;15.63;13.60;;;21.80;51.00;;;;;;4982469;28;20545;-44
2022/04/27 09:52:01;;;;;;;13.87;12.37;;;21.90;49.70;;;;;;4981620;28;20961;-47
2022/04/27 09:54:37;;;;;;;15.70;13.20;;;22.00;49.10;;;;;;4980959;28;20452;-46
2022/04/27 09:57:09;;;;;;;12.70;11.20;;;22.10;48.80;;;;;;4969214;28;20461;-44
2022/04/27 09:59:37;;;;;;;14.30;11.87;;;22.30;49.00;;;;;;4979551;28;20445;-44
2022/04/27 10:02:10;;;;;;;13.83;12.30;;;22.50;49.20;;;;;;4979827;28;20460;-45
2022/04/27 10:04:39;;;;;;;14.30;12.83;;;22.70;48.70;;;;;;4986101;28;20445;-45
2022/04/27 10:07:09;;;;;;;13.00;11.80;;;22.90;48.20;;;;;;4978891;28;20468;-45
2022/04/27 10:09:36;;;;;;;13.23;11.90;;;23.00;48.00;;;;;;4980778;28;20524;-45
2022/04/27 10:12:14;;;;;;;13.67;12.27;;;23.10;48.00;;;;;;4980790;28;20516;-46
2022/04/27 10:14:45;;;;;;;13.10;11.77;;;23.40;48.60;;;;;;4979394;28;20446;-47
2022/04/27 10:17:12;;;;;;;12.73;11.30;;;23.50;48.60;;;;;;4980455;28;20486;-45
2022/04/27 10:19:50;;;;;;;15.73;13.17;;;23.50;48.00;;;;;;4978071;28;20986;-45
2022/04/27 10:22:27;;;;;;;13.30;11.00;;;23.50;47.30;;;;;;4964328;28;20466;-45
2022/04/27 10:24:57;;;;;;;14.53;12.10;;;23.50;46.40;;;;;;4978054;28;20839;-45
2022/04/27 10:27:34;;;;;;;13.27;11.97;;;23.40;47.70;;;;;;4981653;28;20457;-45
2022/04/27 10:30:04;;;;;;;13.40;11.57;;;23.40;48.40;;;;;;4977204;28;20445;-45
2022/04/27 10:32:44;;;;;;;15.93;10.93;;;23.30;47.90;;;;;;4981436;28;20579;-45
2022/04/27 10:35:19;;;;;;;17.03;11.77;;;23.00;46.90;;;;;;4962273;28;21016;-44
2022/04/27 10:38:05;;;;;;;11.53;10.23;;;22.90;46.40;;;;;;4979983;28;20437;-45
2022/04/27 10:40:37;;;;;;;12.67;11.47;;;22.90;47.30;;;;;;4981059;28;20452;-44
2022/04/27 10:43:10;;;;;;;12.97;11.43;;;23.00;47.80;;;;;;4976749;28;20453;-44
2022/04/27 10:45:39;;;;;;;12.67;11.33;;;23.10;47.10;;;;;;4965046;28;20507;-45
2022/04/27 10:48:07;;;;;;;11.37;10.27;;;23.20;46.80;;;;;;4980092;28;20469;-45
2022/04/27 10:50:37;;;;;;;13.90;11.67;;;23.20;47.00;;;;;;4980818;28;20809;-45
2022/04/27 10:53:16;;;;;;;13.63;12.23;;;23.30;47.10;;;;;;4979260;28;20488;-45
2022/04/27 10:55:58;;;;;;;12.40;11.00;;;23.40;46.90;;;;;;4982003;28;20485;-45
2022/04/27 10:58:33;;;;;;;13.00;11.50;;;23.40;47.40;;;;;;4981141;28;20448;-45
2022/04/27 11:03:38;;;;;;;16.23;9.00;;;23.10;47.30;;;;;;4979347;28;20466;-44
2022/04/27 11:06:06;;;;;;;11.20;9.30;;;23.10;47.70;;;;;;4981306;28;20533;-45
2022/04/27 11:08:39;;;;;;;10.27;9.17;;;22.90;47.70;;;;;;4981289;28;20547;-45
2022/04/27 11:11:08;;;;;;;10.30;9.20;;;22.90;47.90;;;;;;4980596;28;20464;-45
2022/04/27 11:13:37;;;;;;;13.00;10.73;;;22.90;47.20;;;;;;4977139;28;20988;-45
2022/04/27 11:16:11;;;;;;;13.13;10.13;;;22.80;47.30;;;;;;4962233;28;20583;-45
2022/04/27 11:18:50;;;;;;;11.33;9.13;;;22.60;45.90;;;;;;4981354;28;20962;-45
2022/04/27 11:21:18;;;;;;;10.30;9.20;;;22.30;46.80;;;;;;4973709;28;20497;-45
2022/04/27 11:23:45;;;;;;;8.77;7.47;;;22.20;46.60;;;;;;4980038;28;20465;-45
2022/04/27 11:26:13;;;;;;;9.73;6.70;;;22.00;47.00;;;;;;4978425;28;20556;-45
2022/04/27 11:28:46;;;;;;;8.27;7.47;;;21.90;47.90;;;;;;4979568;28;20462;-45
2022/04/27 11:31:16;;;;;;;9.23;7.33;;;21.70;47.50;;;;;;4979887;28;20485;-45
2022/04/27 11:33:43;;;;;;;10.37;7.73;;;21.50;46.10;;;;;;4981683;28;20457;-45
2022/04/27 11:36:23;;;;;;;9.40;8.00;;;21.30;46.70;;;;;;4964291;28;20503;-45
2022/04/27 11:38:51;;;;;;;8.57;7.07;;;21.20;46.90;;;;;;4979458;28;20448;-45
2022/04/27 11:41:20;;;;;;;6.60;5.73;;;21.20;47.50;;;;;;4979246;28;20449;-45
2022/04/27 11:43:48;;;;;;;8.17;6.30;;;21.20;48.60;;;;;;4956407;28;20447;-45
2022/04/27 11:46:15;;;;;;;8.23;7.43;;;21.20;48.20;;;;;;4980768;28;20465;-45
2022/04/27 11:48:49;;;;;;;6.80;6.17;;;21.00;46.60;;;;;;4979970;28;20460;-44
2022/04/27 11:51:16;;;;;;;8.53;5.83;;;21.00;47.60;;;;;;4980915;28;20461;-44
2022/04/27 11:53:46;;;;;;;5.43;5.03;;;20.90;48.00;;;;;;4976766;28;20470;-44
2022/04/27 11:56:18;;;;;;;4.67;4.27;;;20.80;45.70;;;;;;4977813;28;21039;-44
2022/04/27 11:58:46;;;;;;;8.87;5.97;;;20.70;43.30;;;;;;4974682;28;20446;-44
2022/04/27 12:01:20;;;;;;;5.70;5.10;;;20.60;43.70;;;;;;4973870;28;20481;-44
2022/04/27 12:03:49;;;;;;;5.90;5.10;;;20.50;45.40;;;;;;4980276;28;20480;-44
2022/04/27 12:06:26;;;;;;;5.17;4.40;;;20.50;46.10;;;;;;4981074;28;20540;-44
2022/04/27 12:08:58;;;;;;;6.73;4.87;;;20.40;45.50;;;;;;4957005;28;20457;-44
2022/04/27 12:11:25;;;;;;;5.93;5.33;;;20.50;45.00;;;;;;4978310;28;20460;-44
2022/04/27 12:13:54;;;;;;;5.73;5.23;;;20.40;45.20;;;;;;4979073;28;20469;-44
2022/04/27 12:16:21;;;;;;;6.00;4.83;;;20.40;46.80;;;;;;4975363;28;20515;-44
2022/04/27 12:18:53;;;;;;;4.87;4.37;;;20.50;47.60;;;;;;4978226;28;20465;-44
2022/04/27 12:21:27;;;;;;;6.23;4.50;;;20.60;46.60;;;;;;4977432;28;20461;-44
2022/04/27 12:23:57;;;;;;;4.17;3.63;;;20.70;45.60;;;;;;4957550;28;20497;-44
2022/04/27 12:26:24;;;;;;;7.50;5.13;;;20.80;47.40;;;;;;4978435;28;20469;-44
2022/04/27 12:28:51;;;;;;;5.47;4.87;;;20.90;46.80;;;;;;4977899;28;20472;-44
2022/04/27 12:31:21;;;;;;;9.20;5.30;;;20.90;46.10;;;;;;4973994;28;21015;-46
2022/04/27 12:33:59;;;;;;;7.50;4.80;;;21.00;46.20;;;;;;4962237;28;20469;-45
2022/04/27 12:39:22;;;;;;;6.60;5.60;;;21.00;44.20;;;;;;4982907;28;20474;-44
2022/04/27 12:42:07;;;;;;;5.20;4.70;;;21.00;45.70;;;;;;4985759;28;20470;-44
2022/04/27 12:44:39;;;;;;;4.70;4.30;;;21.10;47.00;;;;;;4980670;28;20572;-44
2022/04/27 12:47:08;;;;;;;9.60;5.53;;;21.00;43.50;;;;;;4963634;28;20515;-44
2022/04/27 12:49:43;;;;;;;5.10;4.60;;;20.90;42.70;;;;;;4983230;28;20469;-44
2022/04/27 12:52:29;;;;;;;5.83;5.23;;;20.90;43.00;;;;;;4961306;28;20980;-44
2022/04/27 12:55:12;;;;;;;6.63;5.20;;;20.90;44.10;;;;;;4964827;28;20458;-44
2022/04/27 12:57:53;;;;;;;5.60;5.07;;;20.90;45.10;;;;;;4969351;28;20996;-44
2022/04/27 13:00:36;;;;;;;4.90;4.40;;;20.90;44.30;;;;;;4975403;28;21039;-44
2022/04/27 13:03:04;;;;;;;6.53;4.93;;;20.90;45.90;;;;;;4981220;28;20883;-44
2022/04/27 13:05:31;;;;;;;5.50;4.57;;;20.90;44.10;;;;;;4980102;28;20460;-44
2022/04/27 13:07:57;;;;;;;5.03;4.50;;;20.90;44.80;;;;;;4983666;28;20468;-44